»·PEaware :: N320CM KSNA-KBUR

N320CM :: KSNA-KBUR

FLIGHT INFORMATION

Flight Status: Arrived
Operator: Privately registered:
United States
More flights under this callsign
Pilot: Chris M. (19408)
Aircraft: Unknown
(DA62)
More flights by this aircraft type
Origin: KSNA John Wayne-Orange Co
United States
Destination: KBUR Bob Hope-Burbank
United States
More flights between these airports :: More routes between these airports
Route: SLI V23 POPPR SMO125R SMO SMO311R SILEX
File this flight plan on PilotEdge
Remarks: IFR I-3 Attempt
Altitude:
(Current/Filed)
4,000ft
Speed:
(Current/Filed)
160kts
Departed: 04-Feb-19 12:20 PM
Arrived: 04-Feb-19 12:50 PM
Distance/Time
Traveled:
40nm/0:30
Distance/Time
To Go:
Arrived

Flight Plot

Page will automatically refresh every two minutes.


Map Options




Map Legend


Flown Route
Filed Route
Departure Airport
Arrival Airport
Navaid (VOR, NDB)
Fix

Horizontal Profiles

Position Reports

Time Latitude Longitude Heading Altitude Ground
Speed
04-Feb-19 11:51 33.669314 -117.869376 309 60ft 0kts
04-Feb-19 11:51 33.669314 -117.869376 309 60ft 0kts
04-Feb-19 11:53 33.669314 -117.869376 309 60ft 0kts
04-Feb-19 11:54 33.669314 -117.869376 309 60ft 0kts
04-Feb-19 11:54 33.669314 -117.869376 309 60ft 0kts
04-Feb-19 11:55 33.669314 -117.869376 309 60ft 0kts
04-Feb-19 11:56 33.669314 -117.869376 309 60ft 0kts
04-Feb-19 11:57 33.669314 -117.869376 309 60ft 0kts
04-Feb-19 11:58 33.669314 -117.869376 309 60ft 0kts
04-Feb-19 11:59 33.669314 -117.869376 309 60ft 0kts
04-Feb-19 12:00 33.669314 -117.869376 309 60ft 0kts
04-Feb-19 12:01 33.669314 -117.869376 309 60ft 0kts
04-Feb-19 12:08 33.669314 -117.869376 309 60ft 0kts
04-Feb-19 12:09 33.669314 -117.869376 309 60ft 0kts
04-Feb-19 12:10 33.669314 -117.869376 309 60ft 0kts
04-Feb-19 12:11 33.669314 -117.869376 309 60ft 0kts
04-Feb-19 12:12 33.669314 -117.869376 309 60ft 0kts
04-Feb-19 12:13 33.669314 -117.869376 309 60ft 0kts
04-Feb-19 12:14 33.670381 -117.869651 41 60ft 15kts
04-Feb-19 12:15 33.674089 -117.867106 24 60ft 12kts
04-Feb-19 12:16 33.678275 -117.864454 27 60ft 25kts
04-Feb-19 12:17 33.679978 -117.863655 293 60ft 0kts
04-Feb-19 12:18 33.679929 -117.864246 215 60ft 12kts
04-Feb-19 12:19 33.664242 -117.881821 231 830ft 103kts
04-Feb-19 12:20 33.645814 -117.910707 231 1966ft 120kts
04-Feb-19 12:21 33.625328 -117.942801 232 3119ft 119kts
04-Feb-19 12:22 33.646939 -117.965980 350 3993ft 156kts
04-Feb-19 12:23 33.693400 -117.974578 321 3998ft 168kts
04-Feb-19 12:24 33.731039 -118.008766 318 3986ft 170kts
04-Feb-19 12:25 33.769190 -118.042599 319 3984ft 170kts
04-Feb-19 12:26 33.791366 -118.088221 285 3979ft 157kts
04-Feb-19 12:27 33.804673 -118.139012 283 3973ft 164kts
04-Feb-19 12:28 33.818292 -118.192613 283 3967ft 169kts
04-Feb-19 12:29 33.832104 -118.247027 283 3966ft 169kts
04-Feb-19 12:30 33.852385 -118.297539 314 3963ft 173kts
04-Feb-19 12:31 33.888863 -118.334793 317 3963ft 173kts
04-Feb-19 12:32 33.925731 -118.371819 317 3960ft 172kts
04-Feb-19 12:33 33.962158 -118.408449 317 3955ft 172kts
04-Feb-19 12:34 33.998425 -118.444956 316 3951ft 172kts
04-Feb-19 12:35 34.037016 -118.478533 322 4002ft 170kts
04-Feb-19 12:36 34.075875 -118.510039 322 4001ft 171kts
04-Feb-19 12:37 34.104146 -118.551430 302 3997ft 167kts
04-Feb-19 12:38 34.129187 -118.592368 302 3989ft 164kts
04-Feb-19 12:39 34.154858 -118.634389 302 3986ft 161kts
04-Feb-19 12:40 34.190575 -118.656024 37 3975ft 168kts
04-Feb-19 12:41 34.205113 -118.610294 110 3979ft 146kts
04-Feb-19 12:42 34.200094 -118.572559 94 3969ft 121kts
04-Feb-19 12:43 34.199986 -118.536166 95 3454ft 103kts
04-Feb-19 12:44 34.199563 -118.501660 94 2912ft 100kts
04-Feb-19 12:45 34.199159 -118.468074 93 2371ft 100kts
04-Feb-19 12:46 34.198768 -118.434470 93 1828ft 99kts
04-Feb-19 12:47 34.198299 -118.401170 94 1295ft 98kts
04-Feb-19 12:48 34.197963 -118.369722 93 778ft 86kts
04-Feb-19 12:49 34.198537 -118.357973 359 712ft 6kts
04-Feb-19 12:50 34.199698 -118.360129 39 721ft 9kts
04-Feb-19 12:51 34.200214 -118.359229 257 722ft 0kts

Navigation Log

Ident Type
Flight plan parsing failed, navigation log unavailable